Capitol Logistics 82


PHNL
Daniel K Inouye International Airport
Honolulu, Hawaii, US
YSSY
Kingsford Smith International Airport
Sydney, , AU

Activity Log

Date Flight Route Aircraft Duration
04/01/2019 CPX82 OPIHI2 CARRP BARKR B580 BOILS B580 MISLY ABARB RIKNI N774 TESAT B744 9h 47m

Route Details

Aircraft Information
Primary: Boeing 747-400BCF
Backup: Boeing 777-200LRF
Route Data
Distance: 4417nm
Sched. Duration: 9h 44m
Avg. Duration: 9h 47m (+2m)
Times Flown: 1
Recm'd Route: OPIHI2 CARRP BARKR B580 BOILS B580 MISLY ABARB RIKNI N774 TESAT
Planned Altitude: 32,000ft
Origin Wx: PHNL 210853Z 07017G24KT 10SM FEW024 SCT035 BKN043 22/16 A3018 RMK AO2 PK WND 06028/0818 RAB39E48 SLP218 P0000 60000 T02170161 51010
Dest. Wx: YSSY 210930Z 14014KT 9999 FEW030 SCT050 21/17 Q1019
Notes:

Financial History
Total Freight: 159,293lbs
Average Load: 159,293lbs/flt
Fuel Used: 220,844lbs
Avg. Fuel Used: 220,844lbs/flt
Fuel Expense: $152,382
Avg. Fuel Expense: $152,382
Avg. Fuel Cost: $0.69/lbs
Total Gross Income: $527,260
Pilot Pay: $229
Total Expenses: $56,996
Total Revenue: $315,544
Average Revenue: $527,259.81